This is the latest recevied weather packets stored in our database for station/object PU5FJO-13. If no packets are shown the sender has not sent any weather packets the latest 10 day(s).
| Time | Temp. | Humidity | Pressure | Rain* | Wind** | Luminosity | Snow |
|---|---|---|---|---|---|---|---|
| 1777482967 | 19.44° C | 84% | 1015.4 hPa | - | - | - | - |
| 1777482367 | 19.44° C | 82% | 1015.3 hPa | - | - | - | - |
| 1777481772 | 20° C | 80% | 1014.7 hPa | - | - | - | - |
| 1777481167 | 20° C | 80% | 1014.9 hPa | - | - | - | - |
| 1777480567 | 20° C | 82% | 1015.4 hPa | - | - | - | - |
| 1777479967 | 19.44° C | 83% | 1015.7 hPa | - | - | - | - |
| 1777479367 | 19.44° C | 85% | 1016.1 hPa | - | - | - | - |
| 1777478767 | 20° C | 82% | 1014.8 hPa | - | - | - | - |
| 1777478167 | 19.44° C | 82% | 1015.2 hPa | - | - | - | - |
| 1777477567 | 19.44° C | 84% | 1016.3 hPa | - | - | - | - |
| 1777476967 | 19.44° C | 82% | 1015.6 hPa | - | - | - | - |
| 1777476367 | 19.44° C | 82% | 1015.4 hPa | - | - | - | - |
| 1777475767 | 19.44° C | 82% | 1016.2 hPa | - | - | - | - |
| 1777475167 | 18.89° C | 85% | 1016.2 hPa | - | - | - | - |
| 1777474567 | 18.89° C | 87% | 1016.5 hPa | - | - | - | - |
| 1777473967 | 19.44° C | 83% | 1015.5 hPa | - | - | - | - |
| 1777473367 | 18.89° C | 86% | 1016.6 hPa | - | - | - | - |
| 1777472767 | 19.44° C | 85% | 1016.4 hPa | - | - | - | - |
| 1777472167 | 19.44° C | 82% | 1015.9 hPa | - | - | - | - |
| 1777471567 | 19.44° C | 84% | 1015.9 hPa | - | - | - | - |
| 1777470967 | 19.44° C | 84% | 1016.8 hPa | - | - | - | - |
| 1777470367 | 19.44° C | 84% | 1017.3 hPa | - | - | - | - |
| 1777469767 | 19.44° C | 84% | 1017.4 hPa | - | - | - | - |
| 1777469167 | 18.89° C | 86% | 1017.1 hPa | - | - | - | - |
| 1777468567 | 18.89° C | 84% | 1016.5 hPa | - | - | - | - |
* Rain since midnight (hover to see other rain measurements)
** Current wind speed in m/s (hover to see current wind gust speed)